Aviation Digital Data Service (ADDS)

Output produced by METARs form (1205 UTC 22 March 2019)
found at http://www.aviationweather.gov/metar/data/
 
METAR text: EDDB 221150Z 15005KT 110V180 8000 BKN009 09/07 Q1033 BECMG BKN010
Conditions at: EDDB (BERLIN/SCHONEFEL, DE) observed 1150 UTC 22 March 2019
Temperature: 9.0°C (48°F)
Dewpoint: 7.0°C (45°F) [RH = 87%]
Pressure (altimeter): 30.50 inches Hg (1033.0 mb)
Winds: from the SSE (150 degrees) at 6 MPH (5 knots; 2.6 m/s)
Visibility: 5 miles ( 8 km)
Ceiling: 900 feet AGL
Clouds: broken clouds at 900 feet AGL
Weather: no significant weather observed at this time

METAR text: EDDB 221120Z 14003KT 090V260 6000 OVC008 09/07 Q1033 NOSIG
Conditions at: EDDB (BERLIN/SCHONEFEL, DE) observed 1120 UTC 22 March 2019
Temperature: 9.0°C (48°F)
Dewpoint: 7.0°C (45°F) [RH = 87%]
Pressure (altimeter): 30.50 inches Hg (1033.0 mb)
Winds: from the SE (140 degrees) at 3 MPH (3 knots; 1.5 m/s)
Visibility: 4 miles ( 6 km)
Ceiling: 800 feet AGL
Clouds: overcast cloud deck at 800 feet AGL
Weather: no significant weather observed at this time

METAR text: EDDB 221050Z 12003KT 070V190 6000 OVC007 09/07 Q1034 NOSIG
Conditions at: EDDB (BERLIN/SCHONEFEL, DE) observed 1050 UTC 22 March 2019
Temperature: 9.0°C (48°F)
Dewpoint: 7.0°C (45°F) [RH = 87%]
Pressure (altimeter): 30.53 inches Hg (1034.0 mb)
Winds: from the ESE (120 degrees) at 3 MPH (3 knots; 1.5 m/s)
Visibility: 4 miles ( 6 km)
Ceiling: 700 feet AGL
Clouds: overcast cloud deck at 700 feet AGL
Weather: no significant weather observed at this time

METAR text: EDDB 221020Z 10004KT 070V140 6000 OVC007 09/07 Q1034 NOSIG
Conditions at: EDDB (BERLIN/SCHONEFEL, DE) observed 1020 UTC 22 March 2019
Temperature: 9.0°C (48°F)
Dewpoint: 7.0°C (45°F) [RH = 87%]
Pressure (altimeter): 30.53 inches Hg (1034.0 mb)
Winds: from the E (100 degrees) at 5 MPH (4 knots; 2.1 m/s)
Visibility: 4 miles ( 6 km)
Ceiling: 700 feet AGL
Clouds: overcast cloud deck at 700 feet AGL
Weather: no significant weather observed at this time

METAR text: EDDB 220950Z VRB04KT 6000 OVC007 09/07 Q1034 NOSIG
Conditions at: EDDB (BERLIN/SCHONEFEL, DE) observed 0950 UTC 22 March 2019
Temperature: 9.0°C (48°F)
Dewpoint: 7.0°C (45°F) [RH = 87%]
Pressure (altimeter): 30.53 inches Hg (1034.0 mb)
Winds: variable direction winds at 5 MPH (4 knots; 2.1 m/s)
Visibility: 4 miles ( 6 km)
Ceiling: 700 feet AGL
Clouds: overcast cloud deck at 700 feet AGL
Weather: no significant weather observed at this time

METAR text: EDDB 220920Z VRB02KT 6000 OVC007 09/07 Q1034 TEMPO 4500 BR
Conditions at: EDDB (BERLIN/SCHONEFEL, DE) observed 0920 UTC 22 March 2019
Temperature: 9.0°C (48°F)
Dewpoint: 7.0°C (45°F) [RH = 87%]
Pressure (altimeter): 30.53 inches Hg (1034.0 mb)
Winds: variable direction winds at 2 MPH (2 knots; 1.0 m/s)
Visibility: 4 miles ( 6 km)
Ceiling: 700 feet AGL
Clouds: overcast cloud deck at 700 feet AGL
Weather: no significant weather observed at this time

METAR text: EDDB 220850Z 13003KT 7000 BKN008 09/07 Q1034 TEMPO 4500 BR
Conditions at: EDDB (BERLIN/SCHONEFEL, DE) observed 0850 UTC 22 March 2019
Temperature: 9.0°C (48°F)
Dewpoint: 7.0°C (45°F) [RH = 87%]
Pressure (altimeter): 30.53 inches Hg (1034.0 mb)
Winds: from the SE (130 degrees) at 3 MPH (3 knots; 1.5 m/s)
Visibility: 4 miles ( 7 km)
Ceiling: 800 feet AGL
Clouds: broken clouds at 800 feet AGL
Weather: no significant weather observed at this time

METAR text: EDDB 220820Z 11003KT 070V170 7000 OVC008 09/07 Q1034 TEMPO 4500 BR
Conditions at: EDDB (BERLIN/SCHONEFEL, DE) observed 0820 UTC 22 March 2019
Temperature: 9.0°C (48°F)
Dewpoint: 7.0°C (45°F) [RH = 87%]
Pressure (altimeter): 30.53 inches Hg (1034.0 mb)
Winds: from the ESE (110 degrees) at 3 MPH (3 knots; 1.5 m/s)
Visibility: 4 miles ( 7 km)
Ceiling: 800 feet AGL
Clouds: overcast cloud deck at 800 feet AGL
Weather: no significant weather observed at this time

METAR text: EDDB 220750Z VRB02KT 6000 OVC008 09/07 Q1034 TEMPO 4500 BR
Conditions at: EDDB (BERLIN/SCHONEFEL, DE) observed 0750 UTC 22 March 2019
Temperature: 9.0°C (48°F)
Dewpoint: 7.0°C (45°F) [RH = 87%]
Pressure (altimeter): 30.53 inches Hg (1034.0 mb)
Winds: variable direction winds at 2 MPH (2 knots; 1.0 m/s)
Visibility: 4 miles ( 6 km)
Ceiling: 800 feet AGL
Clouds: overcast cloud deck at 800 feet AGL
Weather: no significant weather observed at this time

METAR text: EDDB 220720Z 07003KT 5000 OVC008 08/07 Q1034 TEMPO 4500 BR
Conditions at: EDDB (BERLIN/SCHONEFEL, DE) observed 0720 UTC 22 March 2019
Temperature: 8.0°C (46°F)
Dewpoint: 7.0°C (45°F) [RH = 93%]
Pressure (altimeter): 30.53 inches Hg (1034.0 mb)
Winds: from the ENE (70 degrees) at 3 MPH (3 knots; 1.5 m/s)
Visibility: 3 miles ( 5 km)
Ceiling: 800 feet AGL
Clouds: overcast cloud deck at 800 feet AGL
Weather: no significant weather observed at this time

METAR text: EDDB 220650Z 07003KT 050V110 5000 OVC008 08/07 Q1034 TEMPO 4500 BR
Conditions at: EDDB (BERLIN/SCHONEFEL, DE) observed 0650 UTC 22 March 2019
Temperature: 8.0°C (46°F)
Dewpoint: 7.0°C (45°F) [RH = 93%]
Pressure (altimeter): 30.53 inches Hg (1034.0 mb)
Winds: from the ENE (70 degrees) at 3 MPH (3 knots; 1.5 m/s)
Visibility: 3 miles ( 5 km)
Ceiling: 800 feet AGL
Clouds: overcast cloud deck at 800 feet AGL
Weather: no significant weather observed at this time

METAR text: EDDB 220620Z VRB02KT 5000 OVC007 08/07 Q1033 TEMPO 4500 BR
Conditions at: EDDB (BERLIN/SCHONEFEL, DE) observed 0620 UTC 22 March 2019
Temperature: 8.0°C (46°F)
Dewpoint: 7.0°C (45°F) [RH = 93%]
Pressure (altimeter): 30.50 inches Hg (1033.0 mb)
Winds: variable direction winds at 2 MPH (2 knots; 1.0 m/s)
Visibility: 3 miles ( 5 km)
Ceiling: 700 feet AGL
Clouds: overcast cloud deck at 700 feet AGL
Weather: no significant weather observed at this time

METAR text: EDDB 220550Z VRB02KT 5000 BR BKN008 08/07 Q1033 TEMPO 4500 BR
Conditions at: EDDB (BERLIN/SCHONEFEL, DE) observed 0550 UTC 22 March 2019
Temperature: 8.0°C (46°F)
Dewpoint: 7.0°C (45°F) [RH = 93%]
Pressure (altimeter): 30.50 inches Hg (1033.0 mb)
Winds: variable direction winds at 2 MPH (2 knots; 1.0 m/s)
Visibility: 3 miles ( 5 km)
Ceiling: 800 feet AGL
Clouds: broken clouds at 800 feet AGL
Weather: BR  (mist)

METAR text: EDDB 220520Z 31003KT 5000 BR BKN008 08/07 Q1033 TEMPO 4500 BR
Conditions at: EDDB (BERLIN/SCHONEFEL, DE) observed 0520 UTC 22 March 2019
Temperature: 8.0°C (46°F)
Dewpoint: 7.0°C (45°F) [RH = 93%]
Pressure (altimeter): 30.50 inches Hg (1033.0 mb)
Winds: from the NW (310 degrees) at 3 MPH (3 knots; 1.5 m/s)
Visibility: 3 miles ( 5 km)
Ceiling: 800 feet AGL
Clouds: broken clouds at 800 feet AGL
Weather: BR  (mist)

METAR text: EDDB 220450Z 30004KT 4700 BR BKN009 08/07 Q1033 TEMPO 5000
Conditions at: EDDB (BERLIN/SCHONEFEL, DE) observed 0450 UTC 22 March 2019
Temperature: 8.0°C (46°F)
Dewpoint: 7.0°C (45°F) [RH = 93%]
Pressure (altimeter): 30.50 inches Hg (1033.0 mb)
Winds: from the WNW (300 degrees) at 5 MPH (4 knots; 2.1 m/s)
Visibility: 2.92 miles (4.70 km)
Ceiling: 900 feet AGL
Clouds: broken clouds at 900 feet AGL
Weather: BR  (mist)

METAR text: EDDB 220420Z VRB02KT 4800 BR BKN010 07/06 Q1033 TEMPO 5000 BKN009
Conditions at: EDDB (BERLIN/SCHONEFEL, DE) observed 0420 UTC 22 March 2019
Temperature: 7.0°C (45°F)
Dewpoint: 6.0°C (43°F) [RH = 93%]
Pressure (altimeter): 30.50 inches Hg (1033.0 mb)
Winds: variable direction winds at 2 MPH (2 knots; 1.0 m/s)
Visibility: 2.98 miles (4.80 km)
Ceiling: 1000 feet AGL
Clouds: broken clouds at 1000 feet AGL
Weather: BR  (mist)

METAR text: EDDB 220350Z VRB02KT 4200 BCFG BR BKN010 06/06 Q1033 NOSIG
Conditions at: EDDB (BERLIN/SCHONEFEL, DE) observed 0350 UTC 22 March 2019
Temperature: 6.0°C (43°F)
Dewpoint: 6.0°C (43°F) [RH = 100%]
Pressure (altimeter): 30.50 inches Hg (1033.0 mb)
Winds: variable direction winds at 2 MPH (2 knots; 1.0 m/s)
Visibility: 2.61 miles (4.20 km)
Ceiling: 1000 feet AGL
Clouds: broken clouds at 1000 feet AGL
Weather: BCFG BR  (patches of fog, mist)

METAR text: EDDB 220320Z 22002KT 4200 BCFG BR BKN011 06/06 Q1032 NOSIG
Conditions at: EDDB (BERLIN/SCHONEFEL, DE) observed 0320 UTC 22 March 2019
Temperature: 6.0°C (43°F)
Dewpoint: 6.0°C (43°F) [RH = 100%]
Pressure (altimeter): 30.47 inches Hg (1032.0 mb)
Winds: from the SW (220 degrees) at 2 MPH (2 knots; 1.0 m/s)
Visibility: 2.61 miles (4.20 km)
Ceiling: 1100 feet AGL
Clouds: broken clouds at 1100 feet AGL
Weather: BCFG BR  (patches of fog, mist)

METAR text: EDDB 220250Z VRB02KT 3800 BCFG BR BKN012 06/06 Q1032 NOSIG
Conditions at: EDDB (BERLIN/SCHONEFEL, DE) observed 0250 UTC 22 March 2019
Temperature: 6.0°C (43°F)
Dewpoint: 6.0°C (43°F) [RH = 100%]
Pressure (altimeter): 30.47 inches Hg (1032.0 mb)
Winds: variable direction winds at 2 MPH (2 knots; 1.0 m/s)
Visibility: 2.36 miles (3.80 km)
Ceiling: 1200 feet AGL
Clouds: broken clouds at 1200 feet AGL
Weather: BCFG BR  (patches of fog, mist)

METAR text: EDDB 220220Z 24004KT 3300 BCFG BR BKN012 06/06 Q1032 NOSIG
Conditions at: EDDB (BERLIN/SCHONEFEL, DE) observed 0220 UTC 22 March 2019
Temperature: 6.0°C (43°F)
Dewpoint: 6.0°C (43°F) [RH = 100%]
Pressure (altimeter): 30.47 inches Hg (1032.0 mb)
Winds: from the WSW (240 degrees) at 5 MPH (4 knots; 2.1 m/s)
Visibility: 2.05 miles (3.30 km)
Ceiling: 1200 feet AGL
Clouds: broken clouds at 1200 feet AGL
Weather: BCFG BR  (patches of fog, mist)

METAR text: EDDB 220150Z 25003KT 3300 BCFG BR BKN013 05/05 Q1032 NOSIG
Conditions at: EDDB (BERLIN/SCHONEFEL, DE) observed 0150 UTC 22 March 2019
Temperature: 5.0°C (41°F)
Dewpoint: 5.0°C (41°F) [RH = 100%]
Pressure (altimeter): 30.47 inches Hg (1032.0 mb)
Winds: from the WSW (250 degrees) at 3 MPH (3 knots; 1.5 m/s)
Visibility: 2.05 miles (3.30 km)
Ceiling: 1300 feet AGL
Clouds: broken clouds at 1300 feet AGL
Weather: BCFG BR  (patches of fog, mist)

METAR text: EDDB 220120Z 26003KT 3300 BCFG BR BKN015 05/05 Q1032 NOSIG
Conditions at: EDDB (BERLIN/SCHONEFEL, DE) observed 0120 UTC 22 March 2019
Temperature: 5.0°C (41°F)
Dewpoint: 5.0°C (41°F) [RH = 100%]
Pressure (altimeter): 30.47 inches Hg (1032.0 mb)
Winds: from the W (260 degrees) at 3 MPH (3 knots; 1.5 m/s)
Visibility: 2.05 miles (3.30 km)
Ceiling: 1500 feet AGL
Clouds: broken clouds at 1500 feet AGL
Weather: BCFG BR  (patches of fog, mist)

METAR text: EDDB 220050Z 25004KT 3300 R25L/0700V1000U BCFG BR BKN016 04/04 Q1033 NOSIG
Conditions at: EDDB (BERLIN/SCHONEFEL, DE) observed 0050 UTC 22 March 2019
Temperature: 4.0°C (39°F)
Dewpoint: 4.0°C (39°F) [RH = 100%]
Pressure (altimeter): 30.50 inches Hg (1033.0 mb)
Winds: from the WSW (250 degrees) at 5 MPH (4 knots; 2.1 m/s)
Visibility: 2.05 miles (3.30 km)
Ceiling: 1600 feet AGL
Clouds: broken clouds at 1600 feet AGL
Weather: BCFG BR  (patches of fog, mist)

METAR text: EDDB 220020Z 25002KT 4000 R25L/0650V0800D BCFG BR NSC 04/03 Q1032 TEMPO 0700 FG
Conditions at: EDDB (BERLIN/SCHONEFEL, DE) observed 0020 UTC 22 March 2019
Temperature: 4.0°C (39°F)
Dewpoint: 3.0°C (37°F) [RH = 93%]
Pressure (altimeter): 30.47 inches Hg (1032.0 mb)
Winds: from the WSW (250 degrees) at 2 MPH (2 knots; 1.0 m/s)
Visibility: 2.49 miles (4.01 km)
Ceiling: at least 12,000 feet AGL
Clouds: sky clear below 12,000 feet AGL
Weather: BCFG BR  (patches of fog, mist)

METAR text: EDDB 212350Z 25003KT 0900 R07L/0700VP2000D R25L/0550VP2000U FG NSC 05/05 Q1033 TEMPO 0700 FG
Conditions at: EDDB (BERLIN/SCHONEFEL, DE) observed 2350 UTC 21 March 2019
Temperature: 5.0°C (41°F)
Dewpoint: 5.0°C (41°F) [RH = 100%]
Pressure (altimeter): 30.50 inches Hg (1033.0 mb)
Winds: from the WSW (250 degrees) at 3 MPH (3 knots; 1.5 m/s)
Visibility: 0.56 miles (0.90 km)
Ceiling: at least 12,000 feet AGL
Clouds: sky clear below 12,000 feet AGL
Weather: FG  (fog)

METAR text: EDDB 212320Z 27003KT 7000 R25L/0650V1400U NSC 04/04 Q1033 TEMPO 2500 BR
Conditions at: EDDB (BERLIN/SCHONEFEL, DE) observed 2320 UTC 21 March 2019
Temperature: 4.0°C (39°F)
Dewpoint: 4.0°C (39°F) [RH = 100%]
Pressure (altimeter): 30.50 inches Hg (1033.0 mb)
Winds: from the W (270 degrees) at 3 MPH (3 knots; 1.5 m/s)
Visibility: 4 miles ( 7 km)
Ceiling: at least 12,000 feet AGL
Clouds: sky clear below 12,000 feet AGL
Weather: no significant weather observed at this time

METAR text: EDDB 212250Z 27002KT 8000 NSC 05/05 Q1033 TEMPO 2500 BR
Conditions at: EDDB (BERLIN/SCHONEFEL, DE) observed 2250 UTC 21 March 2019
Temperature: 5.0°C (41°F)
Dewpoint: 5.0°C (41°F) [RH = 100%]
Pressure (altimeter): 30.50 inches Hg (1033.0 mb)
Winds: from the W (270 degrees) at 2 MPH (2 knots; 1.0 m/s)
Visibility: 5 miles ( 8 km)
Ceiling: at least 12,000 feet AGL
Clouds: sky clear below 12,000 feet AGL
Weather: no significant weather observed at this time

METAR text: EDDB 212220Z 27004KT CAVOK 06/06 Q1033 NOSIG
Conditions at: EDDB (BERLIN/SCHONEFEL, DE) observed 2220 UTC 21 March 2019
Temperature: 6.0°C (43°F)
Dewpoint: 6.0°C (43°F) [RH = 100%]
Pressure (altimeter): 30.50 inches Hg (1033.0 mb)
Winds: from the W (270 degrees) at 5 MPH (4 knots; 2.1 m/s)
Visibility: 6 or more miles (10+ km)
Ceiling: ceiling and visibility are OK
Clouds: unknown
Weather: no significant weather observed at this time

METAR text: EDDB 212150Z 26003KT CAVOK 06/05 Q1033 NOSIG
Conditions at: EDDB (BERLIN/SCHONEFEL, DE) observed 2150 UTC 21 March 2019
Temperature: 6.0°C (43°F)
Dewpoint: 5.0°C (41°F) [RH = 93%]
Pressure (altimeter): 30.50 inches Hg (1033.0 mb)
Winds: from the W (260 degrees) at 3 MPH (3 knots; 1.5 m/s)
Visibility: 6 or more miles (10+ km)
Ceiling: ceiling and visibility are OK
Clouds: unknown
Weather: no significant weather observed at this time

METAR text: EDDB 212120Z 25004KT CAVOK 05/05 Q1033 NOSIG
Conditions at: EDDB (BERLIN/SCHONEFEL, DE) observed 2120 UTC 21 March 2019
Temperature: 5.0°C (41°F)
Dewpoint: 5.0°C (41°F) [RH = 100%]
Pressure (altimeter): 30.50 inches Hg (1033.0 mb)
Winds: from the WSW (250 degrees) at 5 MPH (4 knots; 2.1 m/s)
Visibility: 6 or more miles (10+ km)
Ceiling: ceiling and visibility are OK
Clouds: unknown
Weather: no significant weather observed at this time

METAR text: EDDB 212050Z 25002KT CAVOK 06/06 Q1033 NOSIG
Conditions at: EDDB (BERLIN/SCHONEFEL, DE) observed 2050 UTC 21 March 2019
Temperature: 6.0°C (43°F)
Dewpoint: 6.0°C (43°F) [RH = 100%]
Pressure (altimeter): 30.50 inches Hg (1033.0 mb)
Winds: from the WSW (250 degrees) at 2 MPH (2 knots; 1.0 m/s)
Visibility: 6 or more miles (10+ km)
Ceiling: ceiling and visibility are OK
Clouds: unknown
Weather: no significant weather observed at this time

METAR text: EDDB 212020Z 26003KT CAVOK 07/06 Q1032 NOSIG
Conditions at: EDDB (BERLIN/SCHONEFEL, DE) observed 2020 UTC 21 March 2019
Temperature: 7.0°C (45°F)
Dewpoint: 6.0°C (43°F) [RH = 93%]
Pressure (altimeter): 30.47 inches Hg (1032.0 mb)
Winds: from the W (260 degrees) at 3 MPH (3 knots; 1.5 m/s)
Visibility: 6 or more miles (10+ km)
Ceiling: ceiling and visibility are OK
Clouds: unknown
Weather: no significant weather observed at this time

METAR text: EDDB 211950Z 25003KT CAVOK 07/06 Q1032 NOSIG
Conditions at: EDDB (BERLIN/SCHONEFEL, DE) observed 1950 UTC 21 March 2019
Temperature: 7.0°C (45°F)
Dewpoint: 6.0°C (43°F) [RH = 93%]
Pressure (altimeter): 30.47 inches Hg (1032.0 mb)
Winds: from the WSW (250 degrees) at 3 MPH (3 knots; 1.5 m/s)
Visibility: 6 or more miles (10+ km)
Ceiling: ceiling and visibility are OK
Clouds: unknown
Weather: no significant weather observed at this time

METAR text: EDDB 211920Z 21003KT CAVOK 08/06 Q1032 NOSIG
Conditions at: EDDB (BERLIN/SCHONEFEL, DE) observed 1920 UTC 21 March 2019
Temperature: 8.0°C (46°F)
Dewpoint: 6.0°C (43°F) [RH = 87%]
Pressure (altimeter): 30.47 inches Hg (1032.0 mb)
Winds: from the SSW (210 degrees) at 3 MPH (3 knots; 1.5 m/s)
Visibility: 6 or more miles (10+ km)
Ceiling: ceiling and visibility are OK
Clouds: unknown
Weather: no significant weather observed at this time

METAR text: EDDB 211850Z 19003KT CAVOK 09/07 Q1032 NOSIG
Conditions at: EDDB (BERLIN/SCHONEFEL, DE) observed 1850 UTC 21 March 2019
Temperature: 9.0°C (48°F)
Dewpoint: 7.0°C (45°F) [RH = 87%]
Pressure (altimeter): 30.47 inches Hg (1032.0 mb)
Winds: from the S (190 degrees) at 3 MPH (3 knots; 1.5 m/s)
Visibility: 6 or more miles (10+ km)
Ceiling: ceiling and visibility are OK
Clouds: unknown
Weather: no significant weather observed at this time

METAR text: EDDB 211820Z 23003KT CAVOK 09/07 Q1032 NOSIG
Conditions at: EDDB (BERLIN/SCHONEFEL, DE) observed 1820 UTC 21 March 2019
Temperature: 9.0°C (48°F)
Dewpoint: 7.0°C (45°F) [RH = 87%]
Pressure (altimeter): 30.47 inches Hg (1032.0 mb)
Winds: from the SW (230 degrees) at 3 MPH (3 knots; 1.5 m/s)
Visibility: 6 or more miles (10+ km)
Ceiling: ceiling and visibility are OK
Clouds: unknown
Weather: no significant weather observed at this time

METAR text: EDDB 211750Z 27003KT CAVOK 10/07 Q1032 NOSIG
Conditions at: EDDB (BERLIN/SCHONEFEL, DE) observed 1750 UTC 21 March 2019
Temperature: 10.0°C (50°F)
Dewpoint: 7.0°C (45°F) [RH = 82%]
Pressure (altimeter): 30.47 inches Hg (1032.0 mb)
Winds: from the W (270 degrees) at 3 MPH (3 knots; 1.5 m/s)
Visibility: 6 or more miles (10+ km)
Ceiling: ceiling and visibility are OK
Clouds: unknown
Weather: no significant weather observed at this time

METAR text: EDDB 211720Z 26004KT 9999 FEW021 10/07 Q1032 NOSIG
Conditions at: EDDB (BERLIN/SCHONEFEL, DE) observed 1720 UTC 21 March 2019
Temperature: 10.0°C (50°F)
Dewpoint: 7.0°C (45°F) [RH = 82%]
Pressure (altimeter): 30.47 inches Hg (1032.0 mb)
Winds: from the W (260 degrees) at 5 MPH (4 knots; 2.1 m/s)
Visibility: 6 or more miles (10+ km)
Ceiling: at least 12,000 feet AGL
Clouds: few clouds at 2100 feet AGL
Weather: no significant weather observed at this time

METAR text: EDDB 211650Z 26005KT 9999 FEW021 11/07 Q1032 NOSIG
Conditions at: EDDB (BERLIN/SCHONEFEL, DE) observed 1650 UTC 21 March 2019
Temperature: 11.0°C (52°F)
Dewpoint: 7.0°C (45°F) [RH = 76%]
Pressure (altimeter): 30.47 inches Hg (1032.0 mb)
Winds: from the W (260 degrees) at 6 MPH (5 knots; 2.6 m/s)
Visibility: 6 or more miles (10+ km)
Ceiling: at least 12,000 feet AGL
Clouds: few clouds at 2100 feet AGL
Weather: no significant weather observed at this time

METAR text: EDDB 211620Z 27006KT 9999 FEW021 12/07 Q1032 NOSIG
Conditions at: EDDB (BERLIN/SCHONEFEL, DE) observed 1620 UTC 21 March 2019
Temperature: 12.0°C (54°F)
Dewpoint: 7.0°C (45°F) [RH = 71%]
Pressure (altimeter): 30.47 inches Hg (1032.0 mb)
Winds: from the W (270 degrees) at 7 MPH (6 knots; 3.1 m/s)
Visibility: 6 or more miles (10+ km)
Ceiling: at least 12,000 feet AGL
Clouds: few clouds at 2100 feet AGL
Weather: no significant weather observed at this time

METAR text: EDDB 211550Z 28006KT 9999 BKN021 12/07 Q1032 NOSIG
Conditions at: EDDB (BERLIN/SCHONEFEL, DE) observed 1550 UTC 21 March 2019
Temperature: 12.0°C (54°F)
Dewpoint: 7.0°C (45°F) [RH = 71%]
Pressure (altimeter): 30.47 inches Hg (1032.0 mb)
Winds: from the W (280 degrees) at 7 MPH (6 knots; 3.1 m/s)
Visibility: 6 or more miles (10+ km)
Ceiling: 2100 feet AGL
Clouds: broken clouds at 2100 feet AGL
Weather: no significant weather observed at this time

METAR text: EDDB 211520Z 27008KT 9999 BKN021 12/07 Q1032 NOSIG
Conditions at: EDDB (BERLIN/SCHONEFEL, DE) observed 1520 UTC 21 March 2019
Temperature: 12.0°C (54°F)
Dewpoint: 7.0°C (45°F) [RH = 71%]
Pressure (altimeter): 30.47 inches Hg (1032.0 mb)
Winds: from the W (270 degrees) at 9 MPH (8 knots; 4.1 m/s)
Visibility: 6 or more miles (10+ km)
Ceiling: 2100 feet AGL
Clouds: broken clouds at 2100 feet AGL
Weather: no significant weather observed at this time

METAR text: EDDB 211450Z 28008KT 9999 BKN021 12/07 Q1032 NOSIG
Conditions at: EDDB (BERLIN/SCHONEFEL, DE) observed 1450 UTC 21 March 2019
Temperature: 12.0°C (54°F)
Dewpoint: 7.0°C (45°F) [RH = 71%]
Pressure (altimeter): 30.47 inches Hg (1032.0 mb)
Winds: from the W (280 degrees) at 9 MPH (8 knots; 4.1 m/s)
Visibility: 6 or more miles (10+ km)
Ceiling: 2100 feet AGL
Clouds: broken clouds at 2100 feet AGL
Weather: no significant weather observed at this time

METAR text: EDDB 211420Z 28009KT 9999 BKN021 12/07 Q1033 NOSIG
Conditions at: EDDB (BERLIN/SCHONEFEL, DE) observed 1420 UTC 21 March 2019
Temperature: 12.0°C (54°F)
Dewpoint: 7.0°C (45°F) [RH = 71%]
Pressure (altimeter): 30.50 inches Hg (1033.0 mb)
Winds: from the W (280 degrees) at 10 MPH (9 knots; 4.6 m/s)
Visibility: 6 or more miles (10+ km)
Ceiling: 2100 feet AGL
Clouds: broken clouds at 2100 feet AGL
Weather: no significant weather observed at this time

METAR text: EDDB 211350Z 26010KT 9999 BKN020 11/07 Q1033 NOSIG
Conditions at: EDDB (BERLIN/SCHONEFEL, DE) observed 1350 UTC 21 March 2019
Temperature: 11.0°C (52°F)
Dewpoint: 7.0°C (45°F) [RH = 76%]
Pressure (altimeter): 30.50 inches Hg (1033.0 mb)
Winds: from the W (260 degrees) at 12 MPH (10 knots; 5.1 m/s)
Visibility: 6 or more miles (10+ km)
Ceiling: 2000 feet AGL
Clouds: broken clouds at 2000 feet AGL
Weather: no significant weather observed at this time

METAR text: EDDB 211320Z 26009KT 9999 OVC019 11/07 Q1033 NOSIG
Conditions at: EDDB (BERLIN/SCHONEFEL, DE) observed 1320 UTC 21 March 2019
Temperature: 11.0°C (52°F)
Dewpoint: 7.0°C (45°F) [RH = 76%]
Pressure (altimeter): 30.50 inches Hg (1033.0 mb)
Winds: from the W (260 degrees) at 10 MPH (9 knots; 4.6 m/s)
Visibility: 6 or more miles (10+ km)
Ceiling: 1900 feet AGL
Clouds: overcast cloud deck at 1900 feet AGL
Weather: no significant weather observed at this time

METAR text: EDDB 211250Z 27009KT 9999 OVC018 11/07 Q1033 NOSIG
Conditions at: EDDB (BERLIN/SCHONEFEL, DE) observed 1250 UTC 21 March 2019
Temperature: 11.0°C (52°F)
Dewpoint: 7.0°C (45°F) [RH = 76%]
Pressure (altimeter): 30.50 inches Hg (1033.0 mb)
Winds: from the W (270 degrees) at 10 MPH (9 knots; 4.6 m/s)
Visibility: 6 or more miles (10+ km)
Ceiling: 1800 feet AGL
Clouds: overcast cloud deck at 1800 feet AGL
Weather: no significant weather observed at this time

METAR text: EDDB 211220Z 26009KT 9999 OVC018 11/07 Q1034 NOSIG
Conditions at: EDDB (BERLIN/SCHONEFEL, DE) observed 1220 UTC 21 March 2019
Temperature: 11.0°C (52°F)
Dewpoint: 7.0°C (45°F) [RH = 76%]
Pressure (altimeter): 30.53 inches Hg (1034.0 mb)
Winds: from the W (260 degrees) at 10 MPH (9 knots; 4.6 m/s)
Visibility: 6 or more miles (10+ km)
Ceiling: 1800 feet AGL
Clouds: overcast cloud deck at 1800 feet AGL
Weather: no significant weather observed at this time

METAR text: EDDB 211150Z 27011KT 9999 OVC017 11/07 Q1034 NOSIG
Conditions at: EDDB (BERLIN/SCHONEFEL, DE) observed 1150 UTC 21 March 2019
Temperature: 11.0°C (52°F)
Dewpoint: 7.0°C (45°F) [RH = 76%]
Pressure (altimeter): 30.53 inches Hg (1034.0 mb)
Winds: from the W (270 degrees) at 13 MPH (11 knots; 5.7 m/s)
Visibility: 6 or more miles (10+ km)
Ceiling: 1700 feet AGL
Clouds: overcast cloud deck at 1700 feet AGL
Weather: no significant weather observed at this time

METAR text: EDDB 211120Z 27011KT 9999 OVC017 11/07 Q1034 NOSIG
Conditions at: EDDB (BERLIN/SCHONEFEL, DE) observed 1120 UTC 21 March 2019
Temperature: 11.0°C (52°F)
Dewpoint: 7.0°C (45°F) [RH = 76%]
Pressure (altimeter): 30.53 inches Hg (1034.0 mb)
Winds: from the W (270 degrees) at 13 MPH (11 knots; 5.7 m/s)
Visibility: 6 or more miles (10+ km)
Ceiling: 1700 feet AGL
Clouds: overcast cloud deck at 1700 feet AGL
Weather: no significant weather observed at this time

METAR text: EDDB 211050Z 26010KT 9999 OVC018 11/07 Q1034 NOSIG
Conditions at: EDDB (BERLIN/SCHONEFEL, DE) observed 1050 UTC 21 March 2019
Temperature: 11.0°C (52°F)
Dewpoint: 7.0°C (45°F) [RH = 76%]
Pressure (altimeter): 30.53 inches Hg (1034.0 mb)
Winds: from the W (260 degrees) at 12 MPH (10 knots; 5.1 m/s)
Visibility: 6 or more miles (10+ km)
Ceiling: 1800 feet AGL
Clouds: overcast cloud deck at 1800 feet AGL
Weather: no significant weather observed at this time

METAR text: EDDB 211020Z 27010KT 9999 BKN018 11/07 Q1034 NOSIG
Conditions at: EDDB (BERLIN/SCHONEFEL, DE) observed 1020 UTC 21 March 2019
Temperature: 11.0°C (52°F)
Dewpoint: 7.0°C (45°F) [RH = 76%]
Pressure (altimeter): 30.53 inches Hg (1034.0 mb)
Winds: from the W (270 degrees) at 12 MPH (10 knots; 5.1 m/s)
Visibility: 6 or more miles (10+ km)
Ceiling: 1800 feet AGL
Clouds: broken clouds at 1800 feet AGL
Weather: no significant weather observed at this time

METAR text: EDDB 210950Z 27009KT 9999 FEW015 OVC019 11/07 Q1034 NOSIG
Conditions at: EDDB (BERLIN/SCHONEFEL, DE) observed 0950 UTC 21 March 2019
Temperature: 11.0°C (52°F)
Dewpoint: 7.0°C (45°F) [RH = 76%]
Pressure (altimeter): 30.53 inches Hg (1034.0 mb)
Winds: from the W (270 degrees) at 10 MPH (9 knots; 4.6 m/s)
Visibility: 6 or more miles (10+ km)
Ceiling: 1900 feet AGL
Clouds: few clouds at 1500 feet AGL
overcast cloud deck at 1900 feet AGL
Weather: no significant weather observed at this time

METAR text: EDDB 210920Z 26007KT 9999 OVC021 10/07 Q1034 NOSIG
Conditions at: EDDB (BERLIN/SCHONEFEL, DE) observed 0920 UTC 21 March 2019
Temperature: 10.0°C (50°F)
Dewpoint: 7.0°C (45°F) [RH = 82%]
Pressure (altimeter): 30.53 inches Hg (1034.0 mb)
Winds: from the W (260 degrees) at 8 MPH (7 knots; 3.6 m/s)
Visibility: 6 or more miles (10+ km)
Ceiling: 2100 feet AGL
Clouds: overcast cloud deck at 2100 feet AGL
Weather: no significant weather observed at this time

METAR text: EDDB 210850Z 26009KT 9999 OVC019 10/07 Q1034 NOSIG
Conditions at: EDDB (BERLIN/SCHONEFEL, DE) observed 0850 UTC 21 March 2019
Temperature: 10.0°C (50°F)
Dewpoint: 7.0°C (45°F) [RH = 82%]
Pressure (altimeter): 30.53 inches Hg (1034.0 mb)
Winds: from the W (260 degrees) at 10 MPH (9 knots; 4.6 m/s)
Visibility: 6 or more miles (10+ km)
Ceiling: 1900 feet AGL
Clouds: overcast cloud deck at 1900 feet AGL
Weather: no significant weather observed at this time

METAR text: EDDB 210820Z 26009KT 9999 OVC021 10/07 Q1034 NOSIG
Conditions at: EDDB (BERLIN/SCHONEFEL, DE) observed 0820 UTC 21 March 2019
Temperature: 10.0°C (50°F)
Dewpoint: 7.0°C (45°F) [RH = 82%]
Pressure (altimeter): 30.53 inches Hg (1034.0 mb)
Winds: from the W (260 degrees) at 10 MPH (9 knots; 4.6 m/s)
Visibility: 6 or more miles (10+ km)
Ceiling: 2100 feet AGL
Clouds: overcast cloud deck at 2100 feet AGL
Weather: no significant weather observed at this time

METAR text: EDDB 210750Z 24007KT 9999 OVC023 10/07 Q1034 NOSIG
Conditions at: EDDB (BERLIN/SCHONEFEL, DE) observed 0750 UTC 21 March 2019
Temperature: 10.0°C (50°F)
Dewpoint: 7.0°C (45°F) [RH = 82%]
Pressure (altimeter): 30.53 inches Hg (1034.0 mb)
Winds: from the WSW (240 degrees) at 8 MPH (7 knots; 3.6 m/s)
Visibility: 6 or more miles (10+ km)
Ceiling: 2300 feet AGL
Clouds: overcast cloud deck at 2300 feet AGL
Weather: no significant weather observed at this time

METAR text: EDDB 210720Z 26007KT 9999 OVC024 10/07 Q1034 NOSIG
Conditions at: EDDB (BERLIN/SCHONEFEL, DE) observed 0720 UTC 21 March 2019
Temperature: 10.0°C (50°F)
Dewpoint: 7.0°C (45°F) [RH = 82%]
Pressure (altimeter): 30.53 inches Hg (1034.0 mb)
Winds: from the W (260 degrees) at 8 MPH (7 knots; 3.6 m/s)
Visibility: 6 or more miles (10+ km)
Ceiling: 2400 feet AGL
Clouds: overcast cloud deck at 2400 feet AGL
Weather: no significant weather observed at this time

METAR text: EDDB 210650Z 25007KT 9999 OVC023 10/07 Q1034 NOSIG
Conditions at: EDDB (BERLIN/SCHONEFEL, DE) observed 0650 UTC 21 March 2019
Temperature: 10.0°C (50°F)
Dewpoint: 7.0°C (45°F) [RH = 82%]
Pressure (altimeter): 30.53 inches Hg (1034.0 mb)
Winds: from the WSW (250 degrees) at 8 MPH (7 knots; 3.6 m/s)
Visibility: 6 or more miles (10+ km)
Ceiling: 2300 feet AGL
Clouds: overcast cloud deck at 2300 feet AGL
Weather: no significant weather observed at this time

METAR text: EDDB 210620Z 25007KT 9999 BKN024 09/07 Q1033 NOSIG
Conditions at: EDDB (BERLIN/SCHONEFEL, DE) observed 0620 UTC 21 March 2019
Temperature: 9.0°C (48°F)
Dewpoint: 7.0°C (45°F) [RH = 87%]
Pressure (altimeter): 30.50 inches Hg (1033.0 mb)
Winds: from the WSW (250 degrees) at 8 MPH (7 knots; 3.6 m/s)
Visibility: 6 or more miles (10+ km)
Ceiling: 2400 feet AGL
Clouds: broken clouds at 2400 feet AGL
Weather: no significant weather observed at this time

METAR text: EDDB 210550Z 26005KT 9999 FEW018 BKN024 09/07 Q1033 NOSIG
Conditions at: EDDB (BERLIN/SCHONEFEL, DE) observed 0550 UTC 21 March 2019
Temperature: 9.0°C (48°F)
Dewpoint: 7.0°C (45°F) [RH = 87%]
Pressure (altimeter): 30.50 inches Hg (1033.0 mb)
Winds: from the W (260 degrees) at 6 MPH (5 knots; 2.6 m/s)
Visibility: 6 or more miles (10+ km)
Ceiling: 2400 feet AGL
Clouds: few clouds at 1800 feet AGL
broken clouds at 2400 feet AGL
Weather: no significant weather observed at this time

METAR text: EDDB 210520Z 25005KT 9999 BKN025 08/06 Q1033 NOSIG
Conditions at: EDDB (BERLIN/SCHONEFEL, DE) observed 0520 UTC 21 March 2019
Temperature: 8.0°C (46°F)
Dewpoint: 6.0°C (43°F) [RH = 87%]
Pressure (altimeter): 30.50 inches Hg (1033.0 mb)
Winds: from the WSW (250 degrees) at 6 MPH (5 knots; 2.6 m/s)
Visibility: 6 or more miles (10+ km)
Ceiling: 2500 feet AGL
Clouds: broken clouds at 2500 feet AGL
Weather: no significant weather observed at this time

METAR text: EDDB 210450Z 24005KT 9999 FEW018 BKN026 08/06 Q1033 TEMPO BKN013
Conditions at: EDDB (BERLIN/SCHONEFEL, DE) observed 0450 UTC 21 March 2019
Temperature: 8.0°C (46°F)
Dewpoint: 6.0°C (43°F) [RH = 87%]
Pressure (altimeter): 30.50 inches Hg (1033.0 mb)
Winds: from the WSW (240 degrees) at 6 MPH (5 knots; 2.6 m/s)
Visibility: 6 or more miles (10+ km)
Ceiling: 2600 feet AGL
Clouds: few clouds at 1800 feet AGL
broken clouds at 2600 feet AGL
Weather: no significant weather observed at this time

METAR text: EDDB 210420Z 24004KT 9999 FEW018 BKN025 08/06 Q1033 TEMPO BKN013
Conditions at: EDDB (BERLIN/SCHONEFEL, DE) observed 0420 UTC 21 March 2019
Temperature: 8.0°C (46°F)
Dewpoint: 6.0°C (43°F) [RH = 87%]
Pressure (altimeter): 30.50 inches Hg (1033.0 mb)
Winds: from the WSW (240 degrees) at 5 MPH (4 knots; 2.1 m/s)
Visibility: 6 or more miles (10+ km)
Ceiling: 2500 feet AGL
Clouds: few clouds at 1800 feet AGL
broken clouds at 2500 feet AGL
Weather: no significant weather observed at this time

METAR text: EDDB 210350Z 25005KT 9999 FEW016 BKN025 08/06 Q1033 TEMPO BKN013
Conditions at: EDDB (BERLIN/SCHONEFEL, DE) observed 0350 UTC 21 March 2019
Temperature: 8.0°C (46°F)
Dewpoint: 6.0°C (43°F) [RH = 87%]
Pressure (altimeter): 30.50 inches Hg (1033.0 mb)
Winds: from the WSW (250 degrees) at 6 MPH (5 knots; 2.6 m/s)
Visibility: 6 or more miles (10+ km)
Ceiling: 2500 feet AGL
Clouds: few clouds at 1600 feet AGL
broken clouds at 2500 feet AGL
Weather: no significant weather observed at this time

METAR text: EDDB 210320Z 25005KT 9999 SCT015 BKN025 09/06 Q1033 TEMPO BKN013
Conditions at: EDDB (BERLIN/SCHONEFEL, DE) observed 0320 UTC 21 March 2019
Temperature: 9.0°C (48°F)
Dewpoint: 6.0°C (43°F) [RH = 81%]
Pressure (altimeter): 30.50 inches Hg (1033.0 mb)
Winds: from the WSW (250 degrees) at 6 MPH (5 knots; 2.6 m/s)
Visibility: 6 or more miles (10+ km)
Ceiling: 2500 feet AGL
Clouds: scattered clouds at 1500 feet AGL
broken clouds at 2500 feet AGL
Weather: no significant weather observed at this time

METAR text: EDDB 210250Z 25005KT 9999 SCT015 BKN025 09/06 Q1033 TEMPO BKN013
Conditions at: EDDB (BERLIN/SCHONEFEL, DE) observed 0250 UTC 21 March 2019
Temperature: 9.0°C (48°F)
Dewpoint: 6.0°C (43°F) [RH = 81%]
Pressure (altimeter): 30.50 inches Hg (1033.0 mb)
Winds: from the WSW (250 degrees) at 6 MPH (5 knots; 2.6 m/s)
Visibility: 6 or more miles (10+ km)
Ceiling: 2500 feet AGL
Clouds: scattered clouds at 1500 feet AGL
broken clouds at 2500 feet AGL
Weather: no significant weather observed at this time

METAR text: EDDB 210220Z 28006KT 9999 SCT015 BKN026 09/07 Q1033 TEMPO BKN013
Conditions at: EDDB (BERLIN/SCHONEFEL, DE) observed 0220 UTC 21 March 2019
Temperature: 9.0°C (48°F)
Dewpoint: 7.0°C (45°F) [RH = 87%]
Pressure (altimeter): 30.50 inches Hg (1033.0 mb)
Winds: from the W (280 degrees) at 7 MPH (6 knots; 3.1 m/s)
Visibility: 6 or more miles (10+ km)
Ceiling: 2600 feet AGL
Clouds: scattered clouds at 1500 feet AGL
broken clouds at 2600 feet AGL
Weather: no significant weather observed at this time

METAR text: EDDB 210150Z 28006KT 9999 BKN015 BKN026 09/06 Q1033 TEMPO BKN013
Conditions at: EDDB (BERLIN/SCHONEFEL, DE) observed 0150 UTC 21 March 2019
Temperature: 9.0°C (48°F)
Dewpoint: 6.0°C (43°F) [RH = 81%]
Pressure (altimeter): 30.50 inches Hg (1033.0 mb)
Winds: from the W (280 degrees) at 7 MPH (6 knots; 3.1 m/s)
Visibility: 6 or more miles (10+ km)
Ceiling: 1500 feet AGL
Clouds: broken clouds at 1500 feet AGL
broken clouds at 2600 feet AGL
Weather: no significant weather observed at this time

METAR text: EDDB 210120Z 27006KT 9999 SCT016 BKN021 09/06 Q1033 NOSIG
Conditions at: EDDB (BERLIN/SCHONEFEL, DE) observed 0120 UTC 21 March 2019
Temperature: 9.0°C (48°F)
Dewpoint: 6.0°C (43°F) [RH = 81%]
Pressure (altimeter): 30.50 inches Hg (1033.0 mb)
Winds: from the W (270 degrees) at 7 MPH (6 knots; 3.1 m/s)
Visibility: 6 or more miles (10+ km)
Ceiling: 2100 feet AGL
Clouds: scattered clouds at 1600 feet AGL
broken clouds at 2100 feet AGL
Weather: no significant weather observed at this time

METAR text: EDDB 210050Z 27006KT 9999 BKN018 BKN029 09/06 Q1033 NOSIG
Conditions at: EDDB (BERLIN/SCHONEFEL, DE) observed 0050 UTC 21 March 2019
Temperature: 9.0°C (48°F)
Dewpoint: 6.0°C (43°F) [RH = 81%]
Pressure (altimeter): 30.50 inches Hg (1033.0 mb)
Winds: from the W (270 degrees) at 7 MPH (6 knots; 3.1 m/s)
Visibility: 6 or more miles (10+ km)
Ceiling: 1800 feet AGL
Clouds: broken clouds at 1800 feet AGL
broken clouds at 2900 feet AGL
Weather: no significant weather observed at this time

METAR text: EDDB 210020Z 27007KT 9999 SCT018 BKN029 09/06 Q1033 NOSIG
Conditions at: EDDB (BERLIN/SCHONEFEL, DE) observed 0020 UTC 21 March 2019
Temperature: 9.0°C (48°F)
Dewpoint: 6.0°C (43°F) [RH = 81%]
Pressure (altimeter): 30.50 inches Hg (1033.0 mb)
Winds: from the W (270 degrees) at 8 MPH (7 knots; 3.6 m/s)
Visibility: 6 or more miles (10+ km)
Ceiling: 2900 feet AGL
Clouds: scattered clouds at 1800 feet AGL
broken clouds at 2900 feet AGL
Weather: no significant weather observed at this time

Forecast for: EDDB (BERLIN/SCHONEFEL, DE)
Text: TAF EDDB 221100Z 2212/2312 13003KT 6000 BKN008
Forecast period: 1200 UTC 22 March 2019 to 1200 UTC 23 March 2019
Forecast type: FROM: standard forecast or significant change
Winds: from the SE (130 degrees) at 3 MPH (3 knots; 1.5 m/s)
Visibility: 4 miles (6 km)
Ceiling: 800 feet AGL
Clouds: broken clouds at 800 feet AGL
Weather: no significant weather forecast for this period
Text: BECMG 2212/2214 BKN012
Forecast period: 1200 to 1400 UTC 22 March 2019
Forecast type: BECOMING: Conditions expected to become as follows by 1400 UTC 22 March 2019
Winds: from the SE (130 degrees) at 3 MPH (3 knots; 1.5 m/s)
Visibility: 4 miles (6 km)
Ceiling: 1200 feet AGL
Clouds: broken clouds at 1200 feet AGL
Weather: no significant weather forecast for this period
Text: BECMG 2214/2216 SCT020
Forecast period: 1400 UTC 22 March 2019 to 0700 UTC 23 March 2019
Forecast type: BECOMING: Conditions expected to become as follows by 1600 UTC 22 March 2019
Winds: from the SE (130 degrees) at 3 MPH (3 knots; 1.5 m/s)
Visibility: 4 miles (6 km)
Ceiling: at least 12,000 feet AGL
Clouds: scattered clouds at 2000 feet AGL
Weather: no significant weather forecast for this period
Text: PROB30
Forecast period: 0000 to 0800 UTC 23 March 2019
Forecast type: TEMPORARY: The following changes expected for less than half the time period
Visibility: 2.49 miles (4.01 km)
Ceiling: 800 feet AGL
Clouds: broken clouds at 800 feet AGL
Weather: BR  (mist)
Text: TEMPO 2300/2308 4000 BR BKN008
Forecast period: 0700 to 1200 UTC 23 March 2019
Forecast type: BECOMING: Conditions expected to become as follows by 1000 UTC 23 March 2019
Winds: from the WNW (300 degrees) at 9 MPH (8 knots; 4.1 m/s)
Visibility: 4 miles (6 km)
Ceiling: at least 12,000 feet AGL
Clouds: scattered clouds at 2000 feet AGL
Weather: no significant weather forecast for this period